Time;durP1;ratioP1;P1;durP2;ratioP2;P2;SDS_P1;SDS_P2;PMS_P1;PMS_P2;Temp;Humidity;BMP_temperature;BMP_pressure;BME280_temperature;BME280_humidity;BME280_pressure;Samples;Min_cycle;Max_cycle;Signal;HPM_P1;HPM_P2
2022/04/08 00:02:14;;;;;;;10.23;1.50;;;7.60;99.90;;;;;;5036178;28;20083;-90
2022/04/08 00:04:40;;;;;;;10.50;1.70;;;7.60;99.90;;;;;;5038572;28;20471;-90
2022/04/08 00:07:05;;;;;;;5.70;0.95;;;7.60;99.90;;;;;;5026573;28;20021;-89
2022/04/08 00:09:31;;;;;;;8.85;1.60;;;7.60;99.90;;;;;;5042936;28;20441;-90
2022/04/08 00:11:57;;;;;;;8.75;1.70;;;7.60;99.90;;;;;;5042160;28;20082;-89
2022/04/08 00:14:23;;;;;;;11.35;2.25;;;7.50;99.90;;;;;;5043117;28;20020;-89
2022/04/08 00:16:49;;;;;;;10.13;2.33;;;7.50;99.90;;;;;;5042641;28;20078;-89
2022/04/08 00:19:18;;;;;;;5.60;1.58;;;7.50;99.90;;;;;;5026068;28;20385;-89
2022/04/08 00:21:43;;;;;;;9.60;2.33;;;7.50;99.90;;;;;;5042335;28;20067;-90
2022/04/08 00:24:09;;;;;;;6.22;1.10;;;7.50;99.90;;;;;;5042861;28;20052;-89
2022/04/08 00:26:36;;;;;;;7.55;1.35;;;7.50;99.90;;;;;;5060292;28;20052;-89
2022/04/08 00:29:01;;;;;;;7.13;1.90;;;7.50;99.90;;;;;;5060241;28;20025;-90
2022/04/08 00:31:27;;;;;;;5.38;1.52;;;7.50;99.90;;;;;;5042438;28;20051;-89
2022/04/08 00:33:53;;;;;;;11.10;2.75;;;7.50;99.90;;;;;;5060608;28;20385;-90
2022/04/08 00:36:18;;;;;;;10.00;2.05;;;7.50;99.90;;;;;;5042387;28;20060;-89
2022/04/08 00:38:44;;;;;;;12.23;2.45;;;7.50;99.90;;;;;;5026015;28;20029;-88
2022/04/08 00:41:12;;;;;;;8.57;1.60;;;7.50;99.90;;;;;;5042140;28;20023;-89
2022/04/08 00:43:38;;;;;;;16.80;2.38;;;7.50;99.90;;;;;;5026170;28;20037;-89
2022/04/08 00:46:06;;;;;;;12.70;1.55;;;7.50;99.90;;;;;;5042442;28;20020;-89
2022/04/08 00:48:37;;;;;;;9.88;1.73;;;7.50;99.90;;;;;;5042417;28;20111;-88
2022/04/08 00:51:07;;;;;;;8.68;1.55;;;7.50;99.90;;;;;;5060004;28;20029;-89
2022/04/08 00:53:36;;;;;;;11.55;1.50;;;7.50;99.90;;;;;;5042298;28;20119;-89
2022/04/08 00:56:03;;;;;;;9.60;1.60;;;7.50;99.90;;;;;;5060077;28;20031;-89
2022/04/08 00:58:32;;;;;;;12.88;2.72;;;7.50;99.90;;;;;;5042168;28;20071;-88
2022/04/08 01:00:58;;;;;;;13.98;2.88;;;7.40;99.90;;;;;;5041845;28;20111;-88
2022/04/08 01:03:24;;;;;;;10.85;1.98;;;7.40;99.90;;;;;;5059168;28;20117;-88
2022/04/08 01:05:49;;;;;;;10.98;1.83;;;7.40;99.90;;;;;;5042385;28;20052;-89
2022/04/08 01:08:17;;;;;;;9.23;1.75;;;7.40;99.90;;;;;;5059774;28;20025;-89
2022/04/08 01:10:43;;;;;;;11.23;1.90;;;7.40;99.90;;;;;;5042386;28;20017;-89
2022/04/08 01:13:09;;;;;;;10.32;2.15;;;7.40;99.90;;;;;;5025735;28;20025;-89
2022/04/08 01:15:36;;;;;;;11.40;1.67;;;7.40;99.90;;;;;;5058529;28;20028;-89
2022/04/08 01:18:05;;;;;;;7.78;1.70;;;7.40;99.90;;;;;;5038834;28;20017;-91
2022/04/08 01:20:36;;;;;;;13.75;2.53;;;7.40;99.90;;;;;;5056619;28;20477;-89
2022/04/08 01:23:02;;;;;;;11.50;1.67;;;7.40;99.90;;;;;;5056804;28;20041;-89
2022/04/08 01:25:28;;;;;;;7.80;1.80;;;7.40;99.90;;;;;;5056767;28;20489;-88
2022/04/08 01:27:54;;;;;;;13.18;2.20;;;7.30;99.90;;;;;;5038950;28;20025;-89
2022/04/08 01:30:19;;;;;;;8.52;1.50;;;7.30;99.90;;;;;;5038893;28;20504;-90
2022/04/08 01:32:45;;;;;;;12.30;2.40;;;7.30;99.90;;;;;;5038867;28;20355;-89
2022/04/08 01:35:22;;;;;;;15.15;2.20;;;7.30;99.90;;;;;;5038727;28;20059;-87
2022/04/08 01:37:51;;;;;;;12.30;1.95;;;7.30;99.90;;;;;;5018952;28;20080;-88
2022/04/08 01:40:17;;;;;;;8.23;1.60;;;7.30;99.90;;;;;;5035071;28;20032;-89
2022/04/08 01:42:45;;;;;;;13.13;1.80;;;7.20;99.90;;;;;;5035406;28;20029;-89
2022/04/08 01:45:14;;;;;;;13.88;2.30;;;7.20;99.90;;;;;;5035337;28;20039;-89
2022/04/08 01:47:43;;;;;;;14.10;2.50;;;7.20;99.90;;;;;;5035514;28;20025;-90
2022/04/08 01:50:09;;;;;;;11.65;1.83;;;7.20;99.90;;;;;;5034855;28;20065;-90
2022/04/08 01:52:57;;;;;;;12.90;2.05;;;7.10;99.90;;;;;;5019189;28;20124;-89
2022/04/08 01:55:23;;;;;;;7.75;1.50;;;7.10;99.90;;;;;;5035176;28;20558;-90
2022/04/08 01:57:48;;;;;;;9.93;2.15;;;7.10;99.90;;;;;;5035265;28;20124;-88
2022/04/08 02:00:14;;;;;;;10.45;2.15;;;7.10;99.90;;;;;;5036300;28;20052;-89
2022/04/08 02:02:40;;;;;;;12.77;1.92;;;7.00;99.90;;;;;;5018609;28;20037;-89
2022/04/08 02:05:06;;;;;;;12.27;1.70;;;7.00;99.90;;;;;;5035203;28;20021;-89
2022/04/08 02:07:32;;;;;;;19.25;2.35;;;7.00;99.90;;;;;;5036265;28;20068;-89
2022/04/08 02:09:58;;;;;;;12.63;2.38;;;7.00;99.90;;;;;;5035054;28;20037;-89
2022/04/08 02:12:26;;;;;;;17.73;4.05;;;6.90;99.90;;;;;;5035228;28;20049;-89
2022/04/08 02:14:52;;;;;;;14.30;2.90;;;6.90;99.90;;;;;;5035003;28;20109;-89
2022/04/08 02:17:18;;;;;;;16.17;2.40;;;6.90;99.90;;;;;;5023894;28;20048;-88
2022/04/08 02:19:44;;;;;;;9.60;1.85;;;6.90;99.90;;;;;;5024905;28;20120;-88
2022/04/08 02:22:09;;;;;;;13.25;1.77;;;6.90;99.90;;;;;;5036926;28;20053;-90
2022/04/08 02:24:38;;;;;;;15.93;2.13;;;6.90;99.90;;;;;;5035604;28;20026;-89
2022/04/08 02:27:06;;;;;;;9.80;1.70;;;6.90;99.90;;;;;;5034997;28;20421;-89
2022/04/08 02:29:33;;;;;;;11.15;2.35;;;6.90;99.90;;;;;;5017999;28;20029;-89
2022/04/08 02:31:59;;;;;;;11.27;1.80;;;6.90;99.90;;;;;;5034930;28;20017;-89
2022/04/08 02:34:27;;;;;;;13.27;3.30;;;6.80;99.90;;;;;;5034946;28;20056;-89
2022/04/08 02:36:53;;;;;;;14.88;2.72;;;6.80;99.90;;;;;;5044937;28;20049;-89
2022/04/08 02:39:21;;;;;;;14.45;2.22;;;6.80;99.90;;;;;;5055812;28;20099;-89
2022/04/08 02:41:46;;;;;;;12.00;2.13;;;6.70;99.90;;;;;;5039219;28;20021;-89
2022/04/08 02:44:12;;;;;;;10.15;1.80;;;6.70;99.90;;;;;;5055490;28;20025;-89
2022/04/08 02:46:38;;;;;;;12.07;2.28;;;6.70;99.90;;;;;;5037533;28;20064;-89
2022/04/08 02:49:04;;;;;;;13.43;3.53;;;6.70;99.90;;;;;;5037948;28;20091;-89
2022/04/08 02:51:29;;;;;;;10.90;2.28;;;6.60;99.90;;;;;;5037880;28;20123;-89
2022/04/08 02:53:55;;;;;;;15.45;2.78;;;6.60;99.90;;;;;;5021063;28;20033;-89
2022/04/08 02:56:21;;;;;;;13.65;2.55;;;6.50;99.90;;;;;;5037751;28;20029;-89
2022/04/08 02:58:48;;;;;;;13.00;2.10;;;6.50;99.90;;;;;;5037431;28;20040;-88
2022/04/08 03:01:16;;;;;;;10.40;2.53;;;6.50;99.90;;;;;;5037762;28;20123;-87
2022/04/08 03:03:41;;;;;;;12.68;2.50;;;6.50;99.90;;;;;;5037547;28;20071;-87
2022/04/08 03:06:07;;;;;;;14.10;2.33;;;6.40;99.90;;;;;;5037585;28;20029;-88
2022/04/08 03:08:33;;;;;;;8.20;1.80;;;6.40;99.90;;;;;;5037664;28;20108;-89
2022/04/08 03:10:59;;;;;;;16.90;3.40;;;6.40;99.90;;;;;;5037772;28;20024;-88
2022/04/08 03:13:25;;;;;;;10.73;1.98;;;6.40;99.90;;;;;;5037609;28;20461;-88
2022/04/08 03:15:51;;;;;;;10.55;2.03;;;6.40;99.90;;;;;;5037553;28;20029;-88
2022/04/08 03:18:17;;;;;;;13.30;2.35;;;6.40;99.90;;;;;;5037710;28;20028;-88
2022/04/08 03:20:43;;;;;;;8.90;1.85;;;6.40;99.90;;;;;;5037367;28;20033;-88
2022/04/08 03:23:09;;;;;;;13.48;3.20;;;6.40;99.90;;;;;;5037555;28;20033;-88
2022/04/08 03:25:37;;;;;;;9.25;1.50;;;6.40;99.90;;;;;;5037296;28;20450;-88
2022/04/08 03:28:03;;;;;;;11.77;2.38;;;6.40;99.90;;;;;;5020293;28;20063;-88
2022/04/08 03:30:31;;;;;;;9.10;1.50;;;6.40;99.90;;;;;;5037268;28;20013;-88
2022/04/08 03:32:57;;;;;;;7.70;1.73;;;6.40;99.90;;;;;;5020912;28;20040;-87
2022/04/08 03:35:23;;;;;;;12.35;2.03;;;6.40;99.90;;;;;;5037422;28;20029;-88
2022/04/08 03:37:49;;;;;;;10.60;1.88;;;6.40;99.90;;;;;;5020500;28;20044;-88
2022/04/08 03:40:15;;;;;;;7.90;1.30;;;6.40;99.90;;;;;;5036808;28;20462;-88
2022/04/08 03:42:41;;;;;;;12.45;2.00;;;6.40;99.90;;;;;;5037259;28;20039;-89
2022/04/08 03:45:10;;;;;;;8.30;1.25;;;6.40;99.90;;;;;;5037075;28;20021;-89
2022/04/08 03:47:36;;;;;;;8.90;1.35;;;6.40;99.90;;;;;;5037377;28;20029;-88
2022/04/08 03:50:02;;;;;;;6.63;1.40;;;6.40;99.90;;;;;;5037100;28;20394;-88
2022/04/08 03:52:32;;;;;;;6.00;1.30;;;6.30;99.90;;;;;;5020837;28;20041;-89
2022/04/08 03:55:01;;;;;;;7.10;1.25;;;6.40;99.90;;;;;;5021511;28;20037;-89
2022/04/08 03:57:28;;;;;;;7.68;1.23;;;6.30;99.90;;;;;;5037325;28;20466;-89
2022/04/08 03:59:54;;;;;;;5.47;1.27;;;6.30;99.90;;;;;;5036989;28;20021;-88
2022/04/08 04:02:20;;;;;;;4.82;1.02;;;6.30;99.90;;;;;;5046796;28;20049;-88
2022/04/08 04:04:50;;;;;;;6.22;1.45;;;6.30;99.90;;;;;;5051565;28;20393;-88
2022/04/08 04:07:17;;;;;;;7.72;1.15;;;6.30;99.90;;;;;;5053659;28;20021;-90
2022/04/08 04:09:44;;;;;;;6.28;1.08;;;6.30;99.90;;;;;;5052320;28;20025;-88
2022/04/08 04:12:10;;;;;;;4.57;1.25;;;6.20;99.90;;;;;;5067441;28;20028;-88
2022/04/08 04:14:36;;;;;;;8.05;1.40;;;6.20;99.90;;;;;;5050778;28;20016;-88
2022/04/08 04:17:03;;;;;;;4.63;1.60;;;6.10;99.90;;;;;;5030337;28;20025;-87
2022/04/08 04:19:28;;;;;;;10.20;1.17;;;6.10;99.90;;;;;;5055530;28;20025;-88
2022/04/08 04:21:54;;;;;;;10.48;2.25;;;6.10;99.90;;;;;;5036563;28;20032;-89
2022/04/08 04:24:20;;;;;;;4.22;0.93;;;6.00;99.90;;;;;;5036884;28;20025;-89
2022/04/08 04:26:49;;;;;;;7.07;1.70;;;6.10;99.90;;;;;;5036826;28;20113;-89
2022/04/08 04:29:14;;;;;;;7.70;1.38;;;6.00;99.90;;;;;;5037275;28;20025;-89
2022/04/08 04:31:40;;;;;;;9.07;1.52;;;6.00;99.90;;;;;;5036444;28;20028;-88
2022/04/08 04:34:06;;;;;;;10.32;1.63;;;6.00;99.90;;;;;;5020408;28;20133;-88
2022/04/08 04:36:34;;;;;;;7.53;1.35;;;6.00;99.90;;;;;;5036592;28;20136;-89
2022/04/08 04:39:00;;;;;;;9.80;1.83;;;6.00;99.90;;;;;;5021301;28;20021;-89
2022/04/08 04:41:25;;;;;;;9.27;2.47;;;6.00;99.90;;;;;;5054943;28;20032;-89
2022/04/08 04:43:51;;;;;;;10.40;2.40;;;6.00;99.90;;;;;;5043612;28;20026;-89
2022/04/08 04:46:19;;;;;;;9.65;1.85;;;5.90;99.90;;;;;;5044473;28;20017;-89
2022/04/08 04:48:47;;;;;;;10.40;1.40;;;5.90;99.90;;;;;;5056159;28;20029;-89
2022/04/08 04:51:16;;;;;;;11.18;2.10;;;5.90;99.90;;;;;;5039060;28;20075;-89
2022/04/08 04:53:42;;;;;;;15.27;2.67;;;5.90;99.90;;;;;;5040359;28;20044;-90
2022/04/08 04:56:08;;;;;;;10.75;1.60;;;5.90;99.90;;;;;;5023647;28;20101;-89
2022/04/08 04:58:34;;;;;;;10.07;1.95;;;5.70;99.90;;;;;;5039604;28;20060;-89
2022/04/08 05:00:59;;;;;;;15.85;2.40;;;5.70;99.90;;;;;;5040169;28;20124;-88
2022/04/08 05:03:25;;;;;;;10.13;2.08;;;5.70;99.90;;;;;;5039719;28;20484;-89
2022/04/08 05:05:53;;;;;;;13.32;2.15;;;5.70;99.90;;;;;;5040052;28;20040;-89
2022/04/08 05:08:20;;;;;;;10.25;2.20;;;5.70;99.90;;;;;;5025565;28;20067;-89
2022/04/08 05:10:47;;;;;;;15.07;2.28;;;5.70;99.90;;;;;;5050375;28;20025;-89
2022/04/08 05:13:13;;;;;;;12.80;2.33;;;5.60;99.90;;;;;;5039717;28;20488;-88
2022/04/08 05:15:42;;;;;;;14.23;2.38;;;5.60;99.90;;;;;;5039555;28;20017;-89
2022/04/08 05:18:08;;;;;;;12.00;2.05;;;5.60;99.90;;;;;;5041105;28;20031;-88
2022/04/08 05:20:34;;;;;;;12.88;2.15;;;5.60;99.90;;;;;;5040448;28;20029;-89
2022/04/08 05:23:00;;;;;;;10.10;2.20;;;5.60;99.90;;;;;;5040072;28;20040;-89
2022/04/08 05:25:29;;;;;;;10.35;1.70;;;5.60;99.90;;;;;;5042084;28;20025;-89
2022/04/08 05:27:54;;;;;;;10.73;2.47;;;5.60;99.90;;;;;;5040614;28;20025;-89
2022/04/08 05:30:23;;;;;;;9.38;2.10;;;5.60;99.90;;;;;;5040111;28;20021;-89
2022/04/08 05:32:49;;;;;;;12.40;2.00;;;5.60;99.90;;;;;;5039720;28;20082;-88
2022/04/08 05:35:18;;;;;;;11.20;2.40;;;5.60;99.90;;;;;;5042723;28;20462;-89
2022/04/08 05:37:46;;;;;;;8.35;2.20;;;5.60;99.90;;;;;;5023543;28;20159;-90
2022/04/08 05:40:26;;;;;;;9.85;2.28;;;5.60;99.90;;;;;;5040328;28;20017;-89
2022/04/08 05:42:52;;;;;;;11.13;2.78;;;5.60;99.90;;;;;;5023794;28;20036;-88
2022/04/08 05:45:21;;;;;;;8.63;2.15;;;5.60;99.90;;;;;;5023754;28;20082;-89
2022/04/08 05:47:50;;;;;;;10.68;3.65;;;5.60;99.90;;;;;;5040337;28;20021;-89
2022/04/08 05:50:18;;;;;;;8.85;2.50;;;5.60;99.90;;;;;;5039878;28;20071;-87
2022/04/08 05:52:47;;;;;;;12.32;2.67;;;5.50;99.90;;;;;;5057473;28;20029;-87
2022/04/08 05:55:13;;;;;;;7.20;2.08;;;5.50;99.90;;;;;;5039386;28;20112;-88
2022/04/08 05:57:42;;;;;;;9.10;2.97;;;5.60;99.90;;;;;;5039481;28;20075;-89
2022/04/08 06:00:10;;;;;;;10.98;2.13;;;5.60;99.90;;;;;;5023506;28;20124;-88
2022/04/08 06:22:12;;;;;;;11.02;2.67;;;5.40;99.90;;;;;;5091054;28;20315;-85
2022/04/08 06:24:37;;;;;;;10.23;2.80;;;6.00;99.90;;;;;;5053644;28;20033;-86
2022/04/08 06:27:03;;;;;;;11.57;2.67;;;6.00;99.90;;;;;;5054373;28;20357;-85
2022/04/08 06:29:29;;;;;;;8.18;2.40;;;6.00;99.90;;;;;;5037079;28;20090;-85
2022/04/08 06:31:55;;;;;;;9.93;2.50;;;6.00;99.90;;;;;;5054864;28;20116;-86
2022/04/08 06:34:20;;;;;;;8.35;2.72;;;5.90;99.90;;;;;;5038588;28;20033;-85
2022/04/08 06:36:49;;;;;;;10.95;2.78;;;6.00;99.90;;;;;;5054084;28;20024;-86
2022/04/08 06:39:15;;;;;;;10.20;2.60;;;6.00;99.90;;;;;;5055742;28;20021;-86
2022/04/08 06:41:44;;;;;;;11.52;2.97;;;6.00;99.90;;;;;;5055500;28;20032;-86
2022/04/08 06:44:09;;;;;;;6.88;1.90;;;6.00;99.90;;;;;;5054952;28;20020;-86
2022/04/08 06:46:35;;;;;;;7.35;2.60;;;6.00;99.90;;;;;;5054027;28;20035;-85
2022/04/08 06:49:02;;;;;;;8.32;2.30;;;6.10;99.90;;;;;;5054015;28;20024;-86
2022/04/08 06:51:30;;;;;;;6.38;2.00;;;6.10;99.90;;;;;;5037251;28;20116;-86
2022/04/08 06:53:56;;;;;;;8.88;2.53;;;6.10;99.90;;;;;;5073909;28;20029;-85
2022/04/08 06:56:21;;;;;;;6.75;3.00;;;6.20;99.90;;;;;;5037915;28;20039;-86
2022/04/08 06:58:47;;;;;;;8.10;2.42;;;6.20;99.90;;;;;;5036623;28;20360;-86
2022/04/08 07:01:16;;;;;;;6.00;2.40;;;6.20;99.90;;;;;;5036951;28;20024;-85
2022/04/08 07:03:42;;;;;;;11.77;2.70;;;6.20;99.90;;;;;;5053847;28;20339;-85
2022/04/08 07:06:08;;;;;;;10.68;2.70;;;6.30;99.90;;;;;;5036543;28;20025;-86
2022/04/08 07:08:34;;;;;;;7.95;2.60;;;6.40;99.90;;;;;;5035998;28;20024;-85
2022/04/08 07:11:00;;;;;;;12.45;2.72;;;6.40;99.90;;;;;;5052540;28;20025;-86
2022/04/08 07:13:25;;;;;;;8.23;2.13;;;6.40;99.90;;;;;;5052708;28;20029;-85
2022/04/08 07:15:51;;;;;;;7.88;2.05;;;6.50;99.90;;;;;;5036122;28;20032;-85
2022/04/08 07:18:17;;;;;;;8.63;2.47;;;6.50;99.90;;;;;;5052385;28;20047;-85
2022/04/08 07:20:42;;;;;;;8.00;2.65;;;6.70;99.90;;;;;;5051923;28;20048;-85
2022/04/08 07:23:11;;;;;;;9.52;2.22;;;6.70;99.90;;;;;;5022171;28;20387;-86
2022/04/08 07:25:38;;;;;;;14.25;3.22;;;6.80;99.90;;;;;;5056089;28;20017;-85
2022/04/08 07:28:04;;;;;;;8.10;2.25;;;6.80;99.90;;;;;;5023340;28;20021;-85
2022/04/08 07:30:30;;;;;;;11.38;2.40;;;6.80;99.90;;;;;;5039240;28;20033;-85
2022/04/08 07:32:55;;;;;;;12.48;2.45;;;6.80;99.90;;;;;;5023479;28;20090;-86
2022/04/08 07:35:28;;;;;;;7.53;1.88;;;6.90;99.90;;;;;;5056531;28;20028;-84
2022/04/08 07:37:54;;;;;;;4.90;2.17;;;6.90;99.90;;;;;;5041214;28;20078;-85
2022/04/08 07:40:23;;;;;;;7.85;2.20;;;7.00;99.90;;;;;;5057464;28;20119;-85
2022/04/08 07:42:52;;;;;;;8.80;2.20;;;7.10;99.90;;;;;;5058014;28;20098;-85
2022/04/08 07:45:18;;;;;;;7.60;2.22;;;7.10;99.90;;;;;;5055684;28;20460;-85
2022/04/08 07:47:44;;;;;;;8.93;2.15;;;7.10;99.90;;;;;;5039968;28;20029;-85
2022/04/08 07:50:12;;;;;;;13.25;2.92;;;7.20;99.90;;;;;;5055640;28;20100;-85
2022/04/08 07:52:39;;;;;;;6.57;1.88;;;7.20;99.90;;;;;;5058281;28;20033;-85
2022/04/08 07:55:09;;;;;;;6.07;1.77;;;7.30;99.90;;;;;;5039805;28;20032;-85
2022/04/08 07:57:45;;;;;;;14.00;2.30;;;7.30;99.90;;;;;;5041315;28;20082;-86
2022/04/08 08:00:15;;;;;;;7.18;2.10;;;7.40;99.90;;;;;;5057088;28;20283;-85
2022/04/08 08:02:42;;;;;;;13.88;2.35;;;7.40;99.90;;;;;;5057095;28;20024;-86
2022/04/08 08:05:09;;;;;;;6.28;1.95;;;7.40;99.90;;;;;;5023714;28;20029;-86
2022/04/08 08:07:49;;;;;;;12.23;2.42;;;7.50;99.90;;;;;;5039270;28;20082;-86
2022/04/08 08:10:22;;;;;;;9.35;1.83;;;7.60;99.90;;;;;;5056817;28;20135;-86
2022/04/08 08:12:49;;;;;;;6.25;1.80;;;7.60;99.90;;;;;;5056272;28;20464;-87
2022/04/08 08:15:16;;;;;;;8.00;2.05;;;7.70;99.90;;;;;;5055901;28;20058;-86
2022/04/08 08:17:42;;;;;;;7.30;1.80;;;7.70;99.90;;;;;;5056503;28;20021;-86
2022/04/08 08:20:09;;;;;;;8.43;2.40;;;7.70;99.90;;;;;;5023284;28;20069;-86
2022/04/08 08:22:36;;;;;;;6.68;2.38;;;7.80;99.90;;;;;;5056828;28;20036;-86
2022/04/08 08:25:03;;;;;;;7.03;2.08;;;7.80;99.90;;;;;;5039982;28;20049;-86
2022/04/08 08:27:36;;;;;;;7.30;2.00;;;7.80;99.90;;;;;;5039841;28;20021;-86
2022/04/08 08:30:04;;;;;;;6.95;2.35;;;7.90;99.90;;;;;;5056750;28;20056;-86
2022/04/08 08:32:29;;;;;;;10.07;2.30;;;8.00;99.90;;;;;;5055920;28;20044;-86
2022/04/08 08:34:55;;;;;;;8.18;2.53;;;8.00;99.90;;;;;;5021984;28;20034;-86
2022/04/08 08:37:21;;;;;;;8.07;2.13;;;8.00;99.90;;;;;;5023387;28;20025;-85
2022/04/08 08:39:46;;;;;;;11.75;2.88;;;8.10;99.90;;;;;;5043722;28;20048;-85
2022/04/08 08:42:13;;;;;;;11.60;1.85;;;8.10;99.90;;;;;;5026016;28;20075;-85
2022/04/08 08:44:39;;;;;;;8.50;1.80;;;8.10;99.90;;;;;;5042464;28;20025;-84
2022/04/08 08:47:13;;;;;;;5.80;1.73;;;8.20;99.90;;;;;;5041933;28;20033;-85
2022/04/08 08:49:47;;;;;;;6.55;1.90;;;8.20;99.90;;;;;;5058305;28;20116;-85
2022/04/08 08:52:14;;;;;;;8.45;1.75;;;8.20;99.90;;;;;;5059591;28;20029;-85
2022/04/08 08:54:40;;;;;;;9.32;2.25;;;8.30;99.90;;;;;;5048998;28;20035;-85
2022/04/08 08:57:09;;;;;;;5.35;2.10;;;8.30;99.90;;;;;;5069550;28;20028;-85
2022/04/08 08:59:36;;;;;;;9.88;2.55;;;8.30;99.90;;;;;;5056221;28;20036;-85
2022/04/08 09:02:03;;;;;;;8.20;2.15;;;8.40;99.90;;;;;;5053998;28;20434;-85
2022/04/08 09:04:30;;;;;;;9.63;2.45;;;8.40;99.90;;;;;;5056896;28;20068;-85
2022/04/08 09:06:59;;;;;;;13.18;3.00;;;8.40;99.90;;;;;;5056081;28;20024;-84
2022/04/08 09:09:32;;;;;;;9.85;2.67;;;8.50;99.90;;;;;;5053972;28;20017;-85
2022/04/08 09:12:14;;;;;;;8.30;2.80;;;8.50;99.90;;;;;;5059592;28;20017;-85
2022/04/08 09:14:48;;;;;;;10.15;2.63;;;8.50;99.90;;;;;;5054409;28;20029;-85
2022/04/08 09:17:19;;;;;;;9.02;2.50;;;8.50;99.90;;;;;;5054478;28;20036;-85
2022/04/08 09:19:52;;;;;;;9.52;2.75;;;8.50;99.90;;;;;;5054214;28;20079;-85
2022/04/08 09:22:20;;;;;;;7.05;2.10;;;8.60;99.90;;;;;;5037767;28;20045;-85
2022/04/08 09:24:46;;;;;;;8.43;2.67;;;8.60;99.90;;;;;;5037856;28;20063;-85
2022/04/08 09:27:12;;;;;;;8.95;1.90;;;8.60;99.90;;;;;;5054467;28;20032;-85
2022/04/08 09:29:43;;;;;;;12.57;3.17;;;8.70;99.90;;;;;;5039332;28;20487;-85
2022/04/08 09:32:13;;;;;;;6.72;2.00;;;8.70;99.90;;;;;;5037284;28;20025;-85
2022/04/08 09:34:42;;;;;;;7.13;2.20;;;8.80;99.90;;;;;;5037955;28;20380;-85
2022/04/08 09:37:10;;;;;;;7.80;2.40;;;8.80;99.90;;;;;;5053165;28;20480;-85
2022/04/08 09:39:37;;;;;;;13.88;2.85;;;8.90;99.90;;;;;;5036547;28;20025;-85
2022/04/08 09:42:06;;;;;;;10.30;2.45;;;8.90;99.90;;;;;;5053139;28;20075;-85
2022/04/08 09:44:35;;;;;;;6.35;2.60;;;8.90;99.90;;;;;;5052643;28;20017;-84
2022/04/08 09:47:01;;;;;;;9.15;2.40;;;9.00;99.90;;;;;;5037188;28;20051;-85
2022/04/08 09:49:27;;;;;;;8.38;2.53;;;9.00;99.90;;;;;;5056178;28;20551;-85
2022/04/08 09:51:54;;;;;;;7.95;2.20;;;9.10;99.90;;;;;;5044409;28;20056;-85
2022/04/08 09:54:24;;;;;;;9.07;2.42;;;9.10;99.90;;;;;;5063479;28;20029;-85
2022/04/08 09:56:53;;;;;;;8.70;2.78;;;9.10;99.90;;;;;;5063046;28;20045;-85
2022/04/08 09:59:23;;;;;;;9.18;2.55;;;9.10;99.90;;;;;;5063461;28;20100;-85
2022/04/08 10:01:51;;;;;;;6.57;2.65;;;9.10;99.90;;;;;;5061216;28;20059;-85
2022/04/08 10:04:19;;;;;;;9.57;2.75;;;9.10;99.90;;;;;;5061246;28;20027;-85
2022/04/08 10:06:45;;;;;;;7.07;2.33;;;9.10;99.90;;;;;;5044938;28;20029;-85
2022/04/08 10:09:13;;;;;;;7.68;2.17;;;9.10;99.90;;;;;;5027837;28;20048;-85
2022/04/08 10:11:50;;;;;;;11.05;2.50;;;9.20;99.90;;;;;;5062687;28;20078;-85
2022/04/08 10:14:43;;;;;;;8.57;2.45;;;9.20;99.90;;;;;;5058869;28;20017;-85
2022/04/08 10:17:09;;;;;;;7.43;2.22;;;9.30;99.90;;;;;;5058233;28;20487;-85
2022/04/08 10:19:35;;;;;;;10.15;2.90;;;9.30;99.90;;;;;;5041689;28;20060;-85
2022/04/08 10:22:02;;;;;;;13.05;2.60;;;9.30;99.90;;;;;;5059163;28;20472;-85
2022/04/08 10:24:30;;;;;;;9.10;2.50;;;9.40;99.90;;;;;;5042665;28;20029;-85
2022/04/08 10:26:56;;;;;;;7.70;2.40;;;9.40;99.90;;;;;;5060610;28;20025;-84
2022/04/08 10:29:22;;;;;;;11.00;2.70;;;9.50;99.90;;;;;;5063832;28;20021;-85
2022/04/08 10:32:00;;;;;;;9.60;2.65;;;9.50;99.90;;;;;;5033585;28;20047;-84
2022/04/08 10:34:26;;;;;;;10.05;2.50;;;9.50;99.90;;;;;;5044376;28;20092;-85
2022/04/08 10:36:52;;;;;;;7.70;2.25;;;9.50;99.90;;;;;;5059380;28;20528;-85
2022/04/08 10:39:22;;;;;;;9.60;2.60;;;9.50;99.90;;;;;;5059206;28;20017;-83
2022/04/08 10:41:59;;;;;;;9.73;2.57;;;9.60;99.90;;;;;;5024775;28;20075;-85
2022/04/08 10:44:37;;;;;;;6.30;2.67;;;9.50;99.90;;;;;;5062087;28;20262;-85
2022/04/08 10:47:14;;;;;;;6.90;2.10;;;9.50;99.90;;;;;;5064496;28;20028;-85
2022/04/08 10:50:03;;;;;;;8.10;2.38;;;9.50;99.90;;;;;;5063493;28;20032;-85
2022/04/08 10:52:41;;;;;;;9.77;2.28;;;9.50;99.90;;;;;;5048292;28;20021;-84
2022/04/08 10:55:11;;;;;;;7.82;2.85;;;9.60;99.90;;;;;;5062434;28;20361;-85
2022/04/08 10:57:43;;;;;;;9.75;2.55;;;9.60;99.90;;;;;;5047859;28;20130;-85
2022/04/08 11:00:10;;;;;;;;;;;9.70;99.90;;;;;;5060902;28;20089;-85
2022/04/08 11:02:40;;;;;;;7.45;2.65;;;9.70;99.90;;;;;;5060583;28;19912;-85
2022/04/08 11:05:14;;;;;;;9.63;2.65;;;9.70;99.90;;;;;;5025964;28;20025;-85
2022/04/08 11:07:45;;;;;;;9.68;2.83;;;9.70;99.90;;;;;;5060443;28;20032;-85
2022/04/08 11:10:15;;;;;;;7.43;2.75;;;9.70;99.90;;;;;;5043898;28;20467;-85
2022/04/08 11:12:48;;;;;;;6.93;2.42;;;9.70;99.90;;;;;;5044885;28;20120;-84
2022/04/08 11:15:19;;;;;;;5.85;2.35;;;9.70;99.90;;;;;;5057901;28;20102;-85
2022/04/08 11:17:51;;;;;;;8.55;3.03;;;9.70;99.90;;;;;;5061218;28;20037;-84
2022/04/08 11:20:19;;;;;;;9.77;3.05;;;9.70;99.90;;;;;;5048934;28;20029;-85
2022/04/08 11:22:49;;;;;;;8.10;2.88;;;9.80;99.90;;;;;;5050950;28;20529;-85
2022/04/08 11:25:21;;;;;;;7.30;2.97;;;9.90;99.90;;;;;;5055332;28;20021;-84
2022/04/08 11:28:05;;;;;;;7.97;2.67;;;9.90;99.90;;;;;;5071429;28;20025;-83
2022/04/08 11:30:34;;;;;;;12.40;2.90;;;9.90;99.90;;;;;;5068122;28;20028;-85
2022/04/08 11:33:11;;;;;;;9.13;2.70;;;10.00;99.90;;;;;;5071328;28;20044;-85
2022/04/08 11:35:45;;;;;;;8.05;2.30;;;10.10;99.90;;;;;;5060714;28;20064;-84
2022/04/08 11:38:20;;;;;;;10.57;2.83;;;10.10;99.90;;;;;;5073550;28;20013;-84
2022/04/08 11:40:46;;;;;;;7.63;2.55;;;10.10;99.90;;;;;;5074854;28;20024;-84
2022/04/08 11:43:13;;;;;;;6.30;2.50;;;10.20;99.90;;;;;;5070235;28;20478;-85
2022/04/08 11:45:39;;;;;;;8.40;3.35;;;10.20;99.90;;;;;;5074401;28;20016;-85
2022/04/08 11:48:15;;;;;;;7.93;3.15;;;10.30;99.90;;;;;;5071895;28;20025;-85
2022/04/08 11:50:46;;;;;;;8.27;2.75;;;10.30;99.90;;;;;;5069560;28;20104;-84
2022/04/08 11:53:26;;;;;;;12.57;3.58;;;10.30;99.90;;;;;;5054625;28;20075;-84
2022/04/08 11:55:56;;;;;;;12.20;3.20;;;10.30;99.90;;;;;;5067033;28;20029;-85
2022/04/08 11:58:27;;;;;;;10.13;3.17;;;10.30;99.90;;;;;;5069065;28;20117;-84
2022/04/08 12:00:53;;;;;;;9.40;3.08;;;10.30;99.90;;;;;;5070212;28;20063;-84
2022/04/08 12:03:29;;;;;;;8.30;3.30;;;10.30;99.90;;;;;;5053129;28;20040;-84
2022/04/08 12:05:55;;;;;;;11.70;3.47;;;10.30;99.90;;;;;;5071666;28;20025;-84
2022/04/08 12:08:22;;;;;;;9.73;3.15;;;10.30;99.90;;;;;;5070064;28;20468;-85
2022/04/08 12:10:59;;;;;;;11.50;3.42;;;10.30;99.90;;;;;;5067489;28;20025;-85
2022/04/08 12:13:27;;;;;;;8.20;3.60;;;10.20;99.90;;;;;;5068727;28;20029;-85
2022/04/08 12:15:55;;;;;;;10.40;3.45;;;10.10;99.90;;;;;;5069170;28;20033;-85
2022/04/08 12:18:24;;;;;;;9.48;3.97;;;10.00;99.90;;;;;;5070204;28;20070;-85
2022/04/08 12:20:59;;;;;;;12.30;4.28;;;10.00;99.90;;;;;;5052256;28;20450;-85
2022/04/08 12:23:26;;;;;;;10.02;3.95;;;9.90;99.90;;;;;;5052996;28;20483;-85
2022/04/08 12:25:58;;;;;;;11.25;3.55;;;9.90;99.90;;;;;;5071049;28;20037;-84
2022/04/08 12:28:44;;;;;;;8.20;3.15;;;10.00;99.90;;;;;;5068535;28;20029;-85
2022/04/08 12:31:19;;;;;;;8.57;3.75;;;10.00;99.90;;;;;;5056052;28;20363;-85
2022/04/08 12:33:47;;;;;;;14.65;3.55;;;10.10;99.90;;;;;;5069622;28;20040;-85
2022/04/08 12:36:13;;;;;;;10.35;4.22;;;10.10;99.90;;;;;;5039277;28;20029;-84
2022/04/08 12:38:40;;;;;;;12.38;3.47;;;10.20;99.90;;;;;;5074550;28;20063;-85
2022/04/08 12:41:12;;;;;;;8.95;3.40;;;10.20;99.90;;;;;;5056441;28;20021;-85
2022/04/08 12:43:37;;;;;;;8.88;3.20;;;10.30;99.90;;;;;;5073879;28;20025;-84
2022/04/08 12:46:06;;;;;;;9.55;3.42;;;10.30;99.90;;;;;;5039546;28;20020;-84
2022/04/08 12:48:32;;;;;;;9.73;3.75;;;10.30;99.90;;;;;;5057062;28;20029;-85
2022/04/08 12:50:59;;;;;;;9.73;3.05;;;10.30;99.90;;;;;;5073793;28;20047;-85
2022/04/08 12:53:30;;;;;;;12.32;3.40;;;10.30;99.90;;;;;;5057925;28;20032;-85
2022/04/08 12:55:56;;;;;;;10.65;2.92;;;10.30;99.90;;;;;;5055796;28;20045;-85
2022/04/08 12:58:27;;;;;;;6.30;2.55;;;10.40;99.90;;;;;;5053540;28;20033;-85
2022/04/08 13:00:54;;;;;;;10.30;3.75;;;10.40;99.90;;;;;;5056874;28;20025;-85
2022/04/08 13:03:20;;;;;;;9.55;3.22;;;10.40;99.90;;;;;;5040615;28;20121;-84
2022/04/08 13:05:46;;;;;;;7.72;3.30;;;10.50;99.90;;;;;;5055487;28;20017;-85
2022/04/08 13:08:12;;;;;;;11.35;3.42;;;10.50;99.90;;;;;;5069782;28;20392;-85
2022/04/08 13:10:38;;;;;;;12.05;2.78;;;10.50;99.90;;;;;;5053269;28;20071;-85
2022/04/08 13:13:04;;;;;;;5.30;2.00;;;10.60;99.90;;;;;;5037795;28;20033;-85
2022/04/08 13:15:32;;;;;;;5.45;1.90;;;10.60;99.90;;;;;;5053561;28;20021;-84